Aeroporto :
LOGIN :

Iscrizione | Disclaimer

   EN    FR    IT 

 










Sommario :    VFR   VFR Marginale   IFR   IFR Intensivo   IFR Molto Intensivo
Visibilità : 
Base nubi : 
>= 8 km
>= 3000ft
5 / 8 km
1000 / 3000 ft
1500m / 5 km
500 / 1000 ft
800 / 1500m
200 / 500 ft
< 800m
< 200 ft
Simboli :   Temporali  Nebbia  Neve Forte  Precipitazioni Forti  Vento > 20 kt
SIGMETs :   Varie  Temporali  Ghiacco  Turbolenza  Onda orograficha  Ceneri Vulcaniche






- Altitudine del aeroporto : 963 ft
- Codice IATA : TGM


LRTM - Transilvania Târgu Mureş Int.

ULTIMO METAR :
  • 211030Z 25005KT //// VCSH FEW027 FEW033CB BKN048 24/19 Q1010

METARs OBSOLETI :
  • 211000Z VRB02KT //// SCT028 FEW034CB BKN048 25/19 Q1010
  • 210930Z AUTO 22003KT 160V320 9999 FEW026/// BKN080/// BKN110/// 25/19 Q1010
  • 210900Z AUTO 20004KT 170V240 9999 FEW025/// BKN110/// BKN130/// 25/19 Q1010
  • 210830Z AUTO 13003KT 100V210 9999 BKN130/// 24/19 Q1010
  • 210800Z AUTO VRB02KT 9999 FEW024/// BKN130/// BKN210/// 25/19 Q1010
  • 210730Z AUTO VRB01KT 9999 FEW019/// BKN200/// 24/19 Q1010
  • 210700Z AUTO 10003KT 050V200 9999 FEW014/// 23/19 Q1010
  • 210630Z AUTO 09003KT 050V140 9999 FEW010/// 23/20 Q1010
  • 210600Z AUTO VRB02KT 9999 FEW007/// SCT190/// 22/20 Q1010

TAF TAF LRTM
Valido dal 21 a 09 ore il 21 a 18 ore UTC


210800Z 2109/2118 VRB04KT 9999 SCT040
PROB40
TEMPO 2111/2116 VRB15G25KT 5000 TSRA SCT035CB



MetMap, La meteo Aeronautica in un colpo d'occhio ! - Copyright ORBIFLY Dicembre 2007 - Disclaimer

ORBIFLY MET'MAP TEAM :

Programmazione e sviluppo : Alexandra Zaïnal
Concezione : Baudouin d'Aumeries
Supporto tecnico e logistico : Manuel Goepfert
Aiuto : Marc-Olivier Méhu
Aiuto per la traduzione : Arnaldo La Scala




FONTI E CREDITI :

   NOAA